Highlandale, Mississippi
Current Conditions -  °F | °C
As of 1:53 PM on Thursday 30 Oct 2014 (Local Time) from KGWO Reporting Station
Clear Clear  
Wind Chill: 69°   Ceiling: Unl
Heat Index: 69°   Visibility: 10mi
Dew Point: 43°   Wind: 3mph
Humidity: 39%   Direction: NA
Pressure: 30.09"   Gusts: NA
Location:  33.7503°N, 90.3378°W
Report Text: KGWO 301853Z AUTO VRB03KT 10SM CLR 21/06 A3009 RMK AO2 SLP190 T02060061 TSNO
Loading
Personal Weather Stations






























Interactive Weather Map
Tropical Storm Tracking
New forecast layout! Learn more

10-Day Weather Forecast

Advertisements
Track Severe Weather on mobile